Valle Toledo, Valles Caldera, New Mexico Weather observations

Data are for 10 minute period ending at time listed.
 Day   Time   Solar   Ave.   Ave.  Ave.  Vector  Max.   Baro.   Total    
  of    of     Rad.   Air    Rel.  Wind   Wind   Wind  Press.  Precip.   
Year   Day            Temp.  Hum.  Speed  Dir.   Gust                    
2026   (MST)  Kw/m2    F      %     mph   deg.    mph    mb.     in.     
-------------------------------------------------------------------------
 128    6:10   0.02   39.4    39    0.0     0     0.0   730.7    0.00 
 128    6:20   0.17   40.1    38    0.0     0     0.0   730.8    0.00 
 128    6:30   0.23   42.2    36    0.0     0     0.0   730.9    0.00 
 128    6:40   0.26   45.4    33    0.0     0     0.0   731.0    0.00 
 128    6:50   0.30   48.5    31    0.0     0     0.0   731.0    0.00 
 128    7:00   0.34   49.4    31    0.0     0     0.0   731.1    0.00 
 128    7:10   0.37   51.0    28    0.0     0     0.0   731.3    0.00 
 128    7:20   0.41   52.3    26    0.0     0     0.0   731.4    0.00 
 128    7:30   0.45   51.9    28    0.0     0     0.0   731.4    0.00 
 128    7:40   0.48   53.1    26    0.6   105    15.5   731.4    0.00 
 128    7:50   0.52   54.2    24    5.8   131    20.9   731.5    0.00 
 128    8:00   0.56   54.8    23    9.0   117    17.3   731.6    0.00 
 128    8:10   0.59   54.9    22   12.0   128    23.9   731.6    0.00 
 128    8:20   0.62   55.4    21   10.1   131    19.7   731.7    0.00 
 128    8:30   0.66   56.0    20   11.9   131    22.7   731.7    0.00 
 128    8:40   0.69   55.7    21   10.9   114    22.7   731.8    0.00 
 128    8:50   0.72   56.1    21    9.8   122    20.3   731.8    0.00 
 128    9:00   0.75   56.3    21    9.8   109    19.1   731.8    0.00 
 128    9:10   0.78   56.2    21    5.6    92    14.3   731.8    0.00 
 128    9:20   0.80   57.0    21    3.8   127    19.7   731.7    0.00 
 128    9:30   0.83   57.6    20    7.0   124    15.5   731.8    0.00 
 128    9:40   0.84   58.8    19    8.9   138    20.9   731.8    0.00 
 128    9:50   0.87   58.5    19   10.6   138    19.7   731.8    0.00 
 128   10:00   0.90   58.6    19    9.9   139    17.3   731.8    0.00 
 128   10:10   0.92   58.4    20    7.7   133    15.5   731.8    0.00 
 128   10:20   0.93   59.1    19    8.3   132    14.9   731.8    0.00 
 128   10:30   0.95   59.6    19    8.5   162    15.5   731.8    0.00 
 128   10:40   0.96   59.2    20    5.6   103    10.2   731.7    0.00 
 128   10:50   0.96   59.7    18   10.6   117    22.1   731.6    0.00 
 128   11:00   0.99   59.7    18    9.3   140    15.5   731.6    0.00 
 128   11:10   1.00   60.5    18    9.9   129    19.1   731.6    0.00 
 128   11:20   1.01   60.5    18    7.3   138    20.9   731.6    0.00 
 128   11:30   0.94   60.6    18    0.1   111     6.6   731.5    0.00 
 128   11:40   1.01   60.8    19    6.6    96    16.1   731.4    0.00 
 128   11:50   0.99   61.4    17    4.7   126    19.1   731.2    0.00 
 128   12:00   0.92   62.8    16    4.1   141    14.3   731.2    0.00 
 128   12:10   1.04   63.4    17    1.9   117    14.9   731.0    0.00 
 128   12:20   1.03   62.9    16    8.2    97    17.3   731.0    0.00 
 128   12:30   1.03   63.1    16    7.4   117    15.5   731.0    0.00 
 128   12:40   1.03   63.4    16    5.0    86    11.9   730.8    0.00 
 128   12:50   1.02   64.0    16    1.2    90     6.6   730.8    0.00 
 128   13:00   1.00   65.2    14   10.3   142    17.9   730.8    0.00 
 128   13:10   1.00   64.7    14    7.9   167    15.5   730.7    0.00 
 128   13:20   1.04   66.6    14    1.5   154     6.6   730.6    0.00 
 128   13:30   0.97   66.1    14    6.2    87    16.1   730.6    0.00 
 128   13:40   0.64   64.8    14    3.0    90     9.6   730.7    0.00 
 128   13:50   0.76   65.5    14    4.8   129    18.5   730.5    0.00 
 128   14:00   0.83   65.3    13    8.3   120    17.3   730.6    0.00 
 128   14:10   0.70   65.8    13    7.3   128    16.1   730.6    0.00 
 128   14:20   0.89   65.5    14    1.5   123    11.3   730.5    0.00 
 128   14:30   0.79   66.6    14    7.9   117    17.9   730.4    0.00 
 128   14:40   0.36   64.4    14    0.5    88     6.6   730.2    0.00 
 128   14:50   0.40   64.3    14    0.0     0     0.0   730.1    0.00 
 128   15:00   0.43   63.7    14    0.0     0     0.0   730.2    0.00 
 128   15:10   0.48   66.0    13    0.0     0     0.0   730.2    0.00 
 128   15:20   0.61   65.0    13    1.1   116    13.7   730.1    0.00 
 128   15:30   0.73   67.1    12    8.7   125    15.5   730.0    0.00 
 128   15:40   0.48   66.0    12    0.1    96     3.6   729.9    0.00 
 128   15:50   0.46   65.0    13    0.0     0     0.0   729.8    0.00 
 128   16:00   0.45   63.9    13    0.0   151     1.2   729.8    0.00 
 128   16:10   0.68   67.5    12    0.0     0     0.0   729.9    0.00 
 128   16:20   0.63   67.0    13    0.0    49     1.2   729.8    0.00 
 128   16:30   0.39   65.5    13    0.0     0     0.0   729.9    0.00 
 128   16:40   0.39   63.9    13    1.6    69    14.9   730.1    0.00 
 128   16:50   0.44   64.3    13    6.6    75    14.9   730.2    0.00 
 128   17:00   0.40   65.1    12    6.6    67    15.5   730.2    0.00 
 128   17:10   0.37   64.7    12    6.4    78    11.9   730.3    0.00 
 128   17:20   0.37   65.0    13    3.8    69    10.2   730.3    0.00 
 128   17:30   0.30   65.0    12    4.7    86    17.3   730.3    0.00 
 128   17:40   0.24   63.8    13    6.2    85    13.7   730.3    0.00 
 128   17:50   0.22   64.0    13    3.5   114     8.4   730.4    0.00 
 128   18:00   0.18   64.4    13    4.0   110     9.6   730.3    0.00 
 128   18:10   0.14   63.6    13    5.4   124    13.1   730.4    0.00 
 128   18:20   0.11   62.8    14    0.0     0     0.0   730.4    0.00 
 128   18:30   0.08   61.5    15    0.0     0     0.0   730.5    0.00 
 128   18:40   0.04   59.6    17    0.0     0     0.0   730.6    0.00 
 128   18:50   0.01   57.9    18    0.0     0     0.0   730.7    0.00 
 128   19:00   0.01   57.0    19    0.0     0     0.0   730.8    0.00 
 128   19:10   0.00   56.1    20    0.0     0     0.0   730.9    0.00 
 128   19:20   0.00   55.0    20    0.0     0     0.0   731.0    0.00 
 128   19:30   0.00   53.9    22    0.0     0     0.0   731.1    0.00 
 128   19:40   0.00   53.1    23    0.0     0     0.0   731.1    0.00 
 128   19:50   0.00   52.8    23    0.0     0     0.0   731.1    0.00 
 128   20:00   0.00   52.2    24    0.0     0     0.0   731.2    0.00 
 128   20:10   0.00   50.7    26    0.0     0     0.0   731.4    0.00 
 128   20:20   0.00   49.9    27    0.0     0     0.0   731.4    0.00 
 128   20:30   0.00   50.6    26    0.0     0     0.0   731.5    0.00 
 128   20:40   0.00   51.3    25    0.0     0     0.0   731.4    0.00 
 128   20:50   0.00   51.7    25    0.0     0     0.0   731.4    0.00 
 128   21:00   0.00   51.7    24    0.0     0     0.0   731.4    0.00 
 128   21:10   0.00   50.8    26    0.0     0     0.0   731.4    0.00 
 128   21:20   0.00   50.0    26    0.0     0     0.0   731.5    0.00 
 128   21:30   0.00   49.2    27    0.0     0     0.0   731.5    0.00 
 128   21:40   0.00   49.8    26    0.0     0     0.0   731.7    0.00 
 128   21:50   0.00   49.9    27    0.0     0     0.0   731.6    0.00 
 128   22:00   0.00   49.7    27    0.0     0     0.0   731.6    0.00 
 128   22:10   0.00   49.6    27    0.0     0     0.0   731.5    0.00 
 128   22:20   0.00   48.4    28    0.0     0     0.0   731.5    0.00 
 128   22:30   0.00   47.6    29    0.0     0     0.0   731.5    0.00 
 128   22:40   0.00   47.7    29    0.0     0     0.0   731.3    0.00 
 128   22:50   0.00   48.3    28    0.0     0     0.0   731.3    0.00 
 128   23:00   0.00   49.6    26    0.0     0     0.0   731.2    0.00 
 128   23:10   0.00   50.0    26    0.0     0     0.0   731.2    0.00 
 128   23:20   0.00   49.8    26    0.0     0     0.0   731.2    0.00 
 128   23:30   0.00   50.5    25    0.0     0     0.0   731.1    0.00 
 128   23:40   0.00   50.6    25    0.0     0     0.0   731.0    0.00 
 128   23:50   0.00   47.4    29    0.0     0     0.0   730.9    0.00 
 129    0:00   0.00   45.7    31    0.0     0     0.0   730.9    0.00 
 129    0:10   0.00   47.4    29    0.0     0     0.0   730.9    0.00 
 129    0:20   0.00   47.0    30    0.0     0     0.0   730.9    0.00 
 129    0:30   0.00   47.3    30    0.0     0     0.0   730.8    0.00 
 129    0:40   0.00   46.7    31    0.0     0     0.0   730.7    0.00 
 129    0:50   0.00   46.6    30    0.0     0     0.0   730.6    0.00 
 129    1:00   0.00   46.6    30    0.0     0     0.0   730.5    0.00 
 129    1:10   0.00   46.1    30    0.0     0     0.0   730.6    0.00 
 129    1:20   0.00   46.4    30    0.0     0     0.0   730.5    0.00 
 129    1:30   0.00   46.7    30    0.0     0     0.0   730.6    0.00 
 129    1:40   0.00   47.1    30    0.0     0     0.0   730.7    0.00 
 129    1:50   0.00   46.7    30    0.0     0     0.0   730.7    0.00 
 129    2:00   0.00   46.7    30    0.0     0     0.0   730.8    0.00 
 129    2:10   0.00   46.4    30    0.0     0     0.0   730.7    0.00 
 129    2:20   0.00   46.7    30    0.0     0     0.0   730.8    0.00 
 129    2:30   0.00   46.5    30    0.0     0     0.0   730.7    0.00 
 129    2:40   0.00   45.6    31    0.0     0     0.0   730.7    0.00 
 129    2:50   0.00   45.2    31    0.0     0     0.0   730.7    0.00 
 129    3:00   0.00   45.9    31    0.0     0     0.0   730.6    0.00 
 129    3:10   0.00   45.0    32    0.0     0     0.0   730.7    0.00 
 129    3:20   0.00   44.2    33    0.0     0     0.0   730.7    0.00 
 129    3:30   0.00   44.6    32    0.0     0     0.0   730.6    0.00 
 129    3:40   0.00   44.3    32    0.0     0     0.0   730.5    0.00 
 129    3:50   0.00   43.3    34    0.0     0     0.0   730.5    0.00 
 129    4:00   0.00   42.1    36    0.0     0     0.0   730.5    0.00 
 129    4:10   0.00   42.1    36    0.0     0     0.0   730.6    0.00 
 129    4:20   0.00   42.7    35    0.0     0     0.0   730.5    0.00 
 129    4:30   0.00   43.3    33    0.0     0     0.0   730.6    0.00 
 129    4:40   0.00   43.4    33    0.0     0     0.0   731.1    0.00 
 129    4:50   0.00   43.6    33    0.0     0     0.0   731.1    0.00 
 129    5:00   0.00   43.2    34    0.0     0     0.0   731.1    0.00 
 129    5:10   0.00   42.9    34    0.0     0     0.0   731.2    0.00 
 129    5:20   0.01   43.0    34    0.0     0     0.0   731.2    0.00 
 129    5:30   0.01   43.1    34    0.0     0     0.0   731.3    0.00 
 129    5:40   0.01   43.2    34    0.0     0     0.0   731.1    0.00 
 129    5:50   0.02   43.1    34    0.0     0     0.0   731.2    0.00 
 129    6:00   0.02   43.6    34    0.0     0     0.0   731.3    0.00 

Return to Valle Toledo, Valles Caldera graphs page.


Western Regional Climate Center,wrcc@dri.edu